• Join FlightAware (Why Join?)
  • Login
  • US Flag 
01:37PM EDT


 

Airport Tracker/Info


-or-


 

Live Flight TrackerFlight Track Log ✈ SWA318 ✈ 02-Sep-2013 ✈ KMKE - KLAS

Flight Track Log - Related Links

Times and Time Zones

All times are in EDT time to prevent confusion due to time zone crossing. See the SWA318 flight status page for this flight to view local times or setup timezone preferences in your user account.

Time Position Orientation Groundspeed Altitude Reporting Facility
EDT Latitude Longitude Course Direction KTS MPH feet Rate Location/Type
05:25PM 42.9500 -87.8833 20° North 174 200 1,400  Level KMKE
05:26PM 42.9833 -87.8667 20° North 200 230 3,400 1,980 Climbing KMKE
05:27PM 42.9833 -87.9500 270° West 260 299 5,600 2,760 Climbing KMKE
05:28PM 42.9686 -88.0847 262° West 269 310 9,900 2,700 Climbing Chicago Center
05:29PM 42.9597 -88.1969 264° West 292 336 12,000 2,460 Climbing Chicago Center
05:30PM 42.9489 -88.3300 264° West 342 394 15,000 2,640 Climbing Chicago Center
05:31PM 42.9372 -88.4631 263° West 350 403 17,500 2,400 Climbing Chicago Center
05:32PM 42.9361 -88.6061 269° West 370 426 20,000 2,580 Climbing Chicago Center
05:33PM 42.9331 -88.7775 269° West 385 443 22,900 2,460 Climbing Chicago Center
05:35PM 42.9306 -88.9269 269° West 391 450 25,100 1,860 Climbing Chicago Center
05:36PM 42.9278 -89.0800 269° West 400 460 26,800 1,680 Climbing Chicago Center
05:37PM 42.9256 -89.2394 269° West 416 479 28,600 1,500 Climbing Chicago Center
05:38PM 42.9192 -89.4006 267° West 423 487 29,900 1,500 Climbing Chicago Center
05:39PM 42.9114 -89.5653 266° West 432 497 31,700 1,680 Climbing Chicago Center
05:40PM 42.9022 -89.7567 266° West 433 498 33,400 1,440 Climbing Chicago Center
05:41PM 42.8628 -89.9194 252° West 452 520 34,700 1,200 Climbing Chicago Center
05:42PM 42.8292 -90.0664 253° West 455 524 35,900 1,200 Climbing Chicago Center
05:43PM 42.7831 -90.2583 252° West 449 517 37,300 960 Climbing Chicago Center
05:44PM 42.7558 -90.4183 257° West 442 509 38,000 300 Climbing Chicago Center
05:45PM 42.7292 -90.5794 257° West 441 507 38,000  Level Chicago Center
05:46PM 42.7019 -90.7444 257° West 448 516 38,000  Level Chicago Center
05:47PM 42.6736 -90.9081 257° West 449 517 38,000  Level Chicago Center
05:48PM 42.6408 -91.1064 257° West 453 521 38,000  Level Chicago Center
05:49PM 42.6114 -91.2714 256° West 451 519 38,000  Level Chicago Center
05:50PM 42.5806 -91.4375 256° West 452 520 38,000  Level Chicago Center
05:51PM 42.5525 -91.6056 257° West 453 521 38,000  Level Chicago Center
05:52PM 42.5225 -91.7708 256° West 451 519 38,000  Level Chicago Center
05:53PM 42.4925 -91.9353 256° West 450 518 38,000  Level Chicago Center
05:54PM 42.4633 -92.0989 256° West 448 516 38,000  Level Chicago Center
05:55PM 42.4269 -92.2936 256° West 450 518 38,000  Level Chicago Center
05:56PM 42.3969 -92.4569 256° West 451 519 38,000  Level Chicago Center
05:57PM 42.3667 -92.6169 256° West 446 513 38,000  Level Chicago Center
05:58PM 42.3364 -92.7778 256° West 447 514 38,000  Level Chicago Center
05:59PM 42.3061 -92.9381 256° West 444 511 38,000  Level Chicago Center
06:00PM 42.2683 -93.1297 255° West 444 511 38,000  Level Chicago Center
06:01PM 42.2447 -93.2581 256° West 445 512 38,000  Level Minneapolis Center
06:02PM 42.2128 -93.4175 255° West 445 512 38,000  Level Minneapolis Center
06:03PM 42.1822 -93.5797 256° West 448 516 38,000  Level Minneapolis Center
06:04PM 42.1433 -93.7731 255° West 449 517 38,000  Level Minneapolis Center
06:05PM 42.1122 -93.9331 255° West 455 524 38,000  Level Minneapolis Center
06:06PM 42.0789 -94.0964 255° West 452 520 38,000  Level Minneapolis Center
06:07PM 42.0467 -94.2583 255° West 450 518 38,000  Level Minneapolis Center
06:08PM 42.0058 -94.4547 254° West 453 521 38,000  Level Minneapolis Center
06:10PM 41.9728 -94.6186 255° West 455 524 38,000  Level Minneapolis Center
06:11PM 41.9378 -94.7831 254° West 457 526 38,000  Level Minneapolis Center
06:12PM 41.9028 -94.9464 254° West 458 527 38,000  Level Minneapolis Center
06:13PM 41.8689 -95.1092 254° West 454 522 38,000  Level Minneapolis Center
06:14PM 41.8342 -95.2722 254° West 456 525 38,000  Level Minneapolis Center
06:15PM 41.7911 -95.4658 253° West 454 522 38,000  Level Minneapolis Center
06:16PM 41.7553 -95.6292 254° West 457 526 38,000  Level Minneapolis Center
06:17PM 41.7197 -95.7908 254° West 457 526 38,000  Level Minneapolis Center
06:18PM 41.6847 -95.9528 254° West 457 526 38,000  Level Minneapolis Center
06:19PM 41.6464 -96.1281 254° West 457 526 38,000  Level Minneapolis Center
06:20PM 41.6089 -96.2908 253° West 459 528 38,000  Level Minneapolis Center
06:21PM 41.5697 -96.4692 254° West 460 529 38,000  Level Minneapolis Center
06:22PM 41.5319 -96.6314 253° West 460 529 38,000  Level Minneapolis Center
06:23PM 41.4950 -96.7931 253° West 459 528 38,000  Level Minneapolis Center
06:24PM 41.4572 -96.9539 253° West 457 526 38,000  Level Minneapolis Center
06:25PM 41.4119 -97.1483 253° West 459 528 38,000  Level Minneapolis Center
06:26PM 41.3739 -97.3092 253° West 458 527 38,000  Level Minneapolis Center
06:27PM 41.3383 -97.4600 253° West 458 527 38,000  Level Minneapolis Center
06:28PM 41.2914 -97.6547 252° West 460 529 38,000  Level Minneapolis Center
06:29PM 41.2522 -97.8181 252° West 462 532 38,000  Level Minneapolis Center
06:30PM 41.2133 -97.9800 252° West 461 531 38,000  Level Minneapolis Center
06:31PM 41.1742 -98.1408 252° West 458 527 38,000  Level Minneapolis Center
06:32PM 41.1350 -98.3014 252° West 457 526 38,000  Level Minneapolis Center
06:33PM 41.0933 -98.4694 252° West 457 526 38,000  Level Minneapolis Center
06:34PM 41.0525 -98.6283 251° West 457 526 38,000  Level Minneapolis Center
06:35PM 41.0111 -98.7892 251° West 460 529 38,000  Level Minneapolis Center
06:36PM 40.9639 -98.9833 252° West 462 532 38,000  Level Minneapolis Center
06:37PM 40.9228 -99.1472 252° West 457 526 38,000  Level Minneapolis Center
06:39PM 40.8825 -99.3067 252° West 457 526 38,000  Level Denver Center
06:40PM 40.8417 -99.4667 251° West 459 528 38,000  Level Denver Center
06:41PM 40.8000 -99.6261 251° West 460 529 38,000  Level Denver Center
06:42PM 40.7578 -99.7850 251° West 460 529 38,000  Level Denver Center
06:43PM 40.7125 -99.9583 251° West 460 529 38,000  Level Denver Center
06:44PM 40.6717 -100.1119 251° West 462 532 38,000  Level Denver Center
06:45PM 40.6244 -100.2886 251° West 459 528 38,000  Level Denver Center
06:46PM 40.5839 -100.4419 251° West 459 528 38,000  Level Denver Center
06:47PM 40.5358 -100.6203 251° West 461 531 38,000  Level Denver Center
06:48PM 40.4931 -100.7725 250° West 460 529 38,000  Level Denver Center
06:49PM 40.4528 -100.9258 251° West 461 531 38,000  Level Denver Center
06:50PM 40.4286 -101.1083 260° West 454 522 38,000  Level Denver Center
06:51PM 40.4067 -101.2639 260° West 452 520 38,000  Level Denver Center
06:52PM 40.3814 -101.4458 260° West 452 520 38,000  Level Denver Center
06:53PM 40.3603 -101.6014 260° West 452 520 38,000  Level Denver Center
06:54PM 40.3356 -101.7831 260° West 454 522 38,000  Level Denver Center
06:55PM 40.3083 -101.9644 259° West 454 522 38,000  Level Denver Center
06:56PM 40.2825 -102.1461 259° West 455 524 38,000  Level Denver Center
06:57PM 40.2603 -102.3017 259° West 455 524 38,000  Level Denver Center
06:58PM 40.2331 -102.4828 259° West 455 524 38,000  Level Denver Center
06:59PM 40.2097 -102.6372 259° West 454 522 38,000  Level Denver Center
07:00PM 40.1842 -102.8072 259° West 451 519 38,000  Level Denver Center
07:01PM 40.1650 -102.9375 259° West 455 524 38,000  Level Denver Center
07:02PM 40.1353 -103.1297 259° West 453 521 38,000  Level Denver Center
07:03PM 40.1103 -103.2894 258° West 451 519 38,000  Level Denver Center
07:04PM 40.0850 -103.4497 258° West 454 522 38,000  Level Denver Center
07:06PM 40.0550 -103.6439 259° West 456 525 38,000  Level Denver Center
07:07PM 40.0294 -103.8064 258° West 462 532 38,000  Level Denver Center
07:08PM 40.0025 -103.9692 258° West 455 524 38,000  Level Denver Center
07:09PM 39.9711 -104.1653 258° West 461 531 38,000  Level Denver Center
07:10PM 39.9447 -104.3272 258° West 458 527 38,000  Level Denver Center
07:11PM 39.9183 -104.4878 258° West 458 527 38,000  Level Denver Center
07:12PM 39.8858 -104.6803 258° West 460 529 38,000  Level Denver Center
07:13PM 39.8539 -104.8392 255° West 461 531 38,000  Level Denver Center
07:14PM 39.8222 -105.0025 256° West 452 520 38,000  Level Denver Center
07:15PM 39.7914 -105.1611 256° West 461 531 38,000  Level Denver Center
07:16PM 39.7522 -105.3542 255° West 451 519 38,000  Level Denver Center
07:17PM 39.7214 -105.5150 256° West 459 528 38,000  Level Denver Center
07:18PM 39.6886 -105.6753 255° West 464 534 38,000  Level Denver Center
07:19PM 39.6581 -105.8319 256° West 448 516 38,000  Level Denver Center
07:20PM 39.6267 -105.9925 256° West 458 527 38,000  Level Denver Center
07:21PM 39.5911 -106.1661 255° West 461 531 38,000  Level Denver Center
07:22PM 39.5594 -106.3186 255° West 461 531 38,000  Level Denver Center
07:23PM 39.5267 -106.4764 255° West 456 525 38,000  Level Denver Center
07:24PM 39.4864 -106.6683 255° West 457 526 38,000  Level Denver Center
07:25PM 39.4528 -106.8200 254° West 459 528 38,000  Level Denver Center
07:26PM 39.4122 -106.9961 253° West 458 527 38,000  Level Denver Center
07:27PM 39.3767 -107.1453 253° West 454 522 38,000  Level Denver Center
07:28PM 39.3311 -107.3214 252° West 460 529 38,000  Level Denver Center
07:29PM 39.2939 -107.4708 252° West 458 527 38,000  Level Denver Center
07:31PM 39.2481 -107.6464 251° West 460 529 38,000  Level Denver Center
07:32PM 39.2114 -107.7936 252° West 453 521 38,000  Level Denver Center
07:33PM 39.1725 -107.9419 251° West 454 522 38,000  Level Denver Center
07:34PM 39.1286 -108.1122 252° West 447 514 38,000  Level Denver Center
07:35PM 39.0908 -108.2583 252° West 447 514 38,000  Level Denver Center
07:36PM 39.0433 -108.4364 251° West 469 540 38,000  Level Denver Center
07:37PM 39.0033 -108.5867 251° West 464 534 38,000  Level Denver Center
07:38PM 38.9575 -108.7586 251° West 455 524 38,000  Level Denver Center
07:39PM 38.9178 -108.9050 251° West 453 521 38,000  Level Denver Center
07:40PM 38.8717 -109.0783 251° West 457 526 38,000  Level Denver Center
07:41PM 38.8314 -109.2253 251° West 454 522 38,000  Level Denver Center
07:42PM 38.7917 -109.3733 251° West 457 526 38,000  Level Denver Center
07:43PM 38.7450 -109.5428 251° West 452 520 38,000  Level Denver Center
07:44PM 38.7044 -109.6844 250° West 443 510 38,000  Level Denver Center
07:45PM 38.6572 -109.8531 250° West 450 518 38,000  Level Denver Center
07:46PM 38.6161 -109.9978 250° West 451 519 38,000  Level Denver Center
07:47PM 38.5692 -110.1658 250° West 450 518 38,000 -120 Level Denver Center
07:48PM 38.5136 -110.3006 242° Southwest 450 518 37,800 -660 Descending Denver Center
07:49PM 38.4400 -110.4481 238° Southwest 441 507 36,700 -900 Descending Denver Center
07:50PM 38.3772 -110.5767 238° Southwest 446 513 36,000 -420 Descending Denver Center
07:51PM 38.3044 -110.7267 238° Southwest 448 516 35,900 -540 Descending Denver Center
07:52PM 38.2414 -110.8553 238° Southwest 447 514 34,900 -960 Descending Denver Center
07:53PM 38.1706 -110.9992 238° Southwest 453 521 34,000 -480 Descending Denver Center
07:54PM 38.1047 -111.1333 238° Southwest 450 518 34,000  Level Denver Center
07:55PM 38.0381 -111.2667 238° Southwest 447 514 34,000 -600 Level Denver Center
07:57PM 37.9475 -111.4542 239° Southwest 446 513 32,700 -900 Descending Salt Lake Center
07:58PM 37.8811 -111.5867 238° Southwest 446 513 32,000 -360 Descending Salt Lake Center
07:59PM 37.8131 -111.7192 237° Southwest 448 516 32,000  Level Salt Lake Center
08:00PM 37.7328 -111.8369 229° Southwest 442 509 32,000  Level Salt Lake Center
08:01PM 37.6428 -111.9444 223° Southwest 443 510 32,000  Level Salt Lake Center
08:02PM 37.5528 -112.0553 224° Southwest 449 517 32,000  Level Salt Lake Center
08:02PM 37.4811 -112.1478 226° Southwest 455 524 32,000  Level Los Angeles Center
08:04PM 37.4197 -112.2850 241° Southwest 450 518 32,000 -240 Level Los Angeles Center
08:05PM 37.3572 -112.4222 240° Southwest 449 517 31,600 -660 Descending Los Angeles Center
08:06PM 37.2942 -112.5600 240° Southwest 451 519 30,700 -960 Descending Los Angeles Center
08:07PM 37.2294 -112.6989 240° Southwest 455 524 29,700 -1,020 Descending Los Angeles Center
08:08PM 37.1642 -112.8389 240° Southwest 461 531 28,600 -1,140 Descending Los Angeles Center
08:09PM 37.0883 -113.0031 240° Southwest 452 520 27,400 -1,080 Descending Los Angeles Center
08:10PM 37.0261 -113.1364 240° Southwest 443 510 26,400 -1,020 Descending Los Angeles Center
08:11PM 36.9653 -113.2667 240° Southwest 434 499 25,300 -1,020 Descending Los Angeles Center
08:12PM 36.9036 -113.3942 239° Southwest 429 494 24,300 -1,020 Descending Los Angeles Center
08:13PM 36.8444 -113.5208 240° Southwest 424 488 23,300 -1,020 Descending Los Angeles Center
08:14PM 36.7861 -113.6431 239° Southwest 413 475 22,300 -1,020 Descending Los Angeles Center
08:15PM 36.7272 -113.7644 239° Southwest 410 472 21,300 -1,140 Descending Los Angeles Center
08:16PM 36.6569 -113.9078 239° Southwest 405 466 20,000 -780 Descending Los Angeles Center
08:17PM 36.6025 -114.0264 240° Southwest 398 458 19,700 -1,320 Descending Los Angeles Center
08:18PM 36.5475 -114.1383 239° Southwest 385 443 17,300 -2,460 Descending Los Angeles Center
08:19PM 36.5094 -114.2317 243° Southwest 379 436 15,400 -2,340 Descending Los Angeles Center
08:20PM 36.4469 -114.3683 240° Southwest 356 410 12,700 -1,560 Descending Los Angeles Center
08:21PM 36.3947 -114.4744 239° Southwest 312 359 11,800 -840 Descending Los Angeles Center
08:22PM 36.3189 -114.5028 197° South 290 334 11,000 -720 Descending Los Angeles Center
08:23PM 36.2472 -114.5092 184° South 273 314 10,300 -540 Descending Los Angeles Center
08:24PM 36.2236 -114.5806 248° West 256 295 10,000 -480 Descending Los Angeles Center
08:25PM 36.2275 -114.6567 274° West 249 287 9,500 -900 Descending Los Angeles Center
08:26PM 36.1997 -114.7461 249° West 243 280 8,300 -960 Descending Los Angeles Center
08:27PM 36.1736 -114.8242 248° West 243 280 7,500 -960 Descending Los Angeles Center
08:28PM 36.1550 -114.8864 250° West 210 242 6,500 -720 Descending Los Angeles Center
08:29PM 36.1300 -114.9642 248° West 195 224 5,900 -660 Descending Los Angeles Center
08:30PM 36.1347 -115.0106 277° West 177 204 5,200 -1,380 Descending Los Angeles Center
08:31PM 36.1394 -115.0728 275° West 184 212 3,700 -1,200 Descending Los Angeles Center
08:32PM 36.1311 -115.1233 258° West 164 189 3,000 -720 Descending Los Angeles Center
08:32PM 36.1236 -115.1392 240° Southwest 168 193 2,700 -600 Descending Los Angeles Center
08:34PM 36.0814 -115.1625 204° Southwest 151 174 2,100 -600 Descending Los Angeles Center